sensor_id;sensor_type;location;lat;lon;timestamp;P1;durP1;ratioP1;P2;durP2;ratioP2
66139;SDS011;52945;51.908;8.364;2024-01-30T00:00:58;11.13;;;5.25;;
66139;SDS011;52945;51.908;8.364;2024-01-30T00:03:59;12.00;;;5.07;;
66139;SDS011;52945;51.908;8.364;2024-01-30T00:07:03;10.75;;;4.75;;
66139;SDS011;52945;51.908;8.364;2024-01-30T00:10:04;9.50;;;4.85;;
66139;SDS011;52945;51.908;8.364;2024-01-30T00:13:06;11.15;;;4.85;;
66139;SDS011;52945;51.908;8.364;2024-01-30T00:16:07;10.48;;;4.75;;
66139;SDS011;52945;51.908;8.364;2024-01-30T00:19:09;9.63;;;5.15;;
66139;SDS011;52945;51.908;8.364;2024-01-30T00:22:10;9.63;;;5.20;;
66139;SDS011;52945;51.908;8.364;2024-01-30T00:25:10;10.52;;;5.72;;
66139;SDS011;52945;51.908;8.364;2024-01-30T00:28:11;9.35;;;4.75;;
66139;SDS011;52945;51.908;8.364;2024-01-30T00:31:11;12.30;;;4.78;;
66139;SDS011;52945;51.908;8.364;2024-01-30T00:34:12;9.55;;;4.70;;
66139;SDS011;52945;51.908;8.364;2024-01-30T00:37:12;10.70;;;4.97;;
66139;SDS011;52945;51.908;8.364;2024-01-30T00:40:13;10.05;;;4.55;;
66139;SDS011;52945;51.908;8.364;2024-01-30T00:43:15;12.00;;;4.85;;
66139;SDS011;52945;51.908;8.364;2024-01-30T00:46:16;9.10;;;4.65;;
66139;SDS011;52945;51.908;8.364;2024-01-30T00:49:17;9.93;;;4.63;;
66139;SDS011;52945;51.908;8.364;2024-01-30T00:52:17;10.13;;;4.88;;
66139;SDS011;52945;51.908;8.364;2024-01-30T00:55:18;10.93;;;4.72;;
66139;SDS011;52945;51.908;8.364;2024-01-30T00:58:19;10.82;;;5.45;;
66139;SDS011;52945;51.908;8.364;2024-01-30T01:01:19;10.85;;;4.95;;
66139;SDS011;52945;51.908;8.364;2024-01-30T01:04:20;11.73;;;5.32;;
66139;SDS011;52945;51.908;8.364;2024-01-30T01:07:21;10.40;;;5.25;;
66139;SDS011;52945;51.908;8.364;2024-01-30T01:10:21;14.48;;;5.00;;
66139;SDS011;52945;51.908;8.364;2024-01-30T01:13:22;9.07;;;4.88;;
66139;SDS011;52945;51.908;8.364;2024-01-30T01:16:23;10.88;;;5.05;;
66139;SDS011;52945;51.908;8.364;2024-01-30T01:19:23;8.50;;;4.78;;
66139;SDS011;52945;51.908;8.364;2024-01-30T01:22:24;9.88;;;4.47;;
66139;SDS011;52945;51.908;8.364;2024-01-30T01:25:24;10.63;;;4.43;;
66139;SDS011;52945;51.908;8.364;2024-01-30T01:28:25;11.70;;;5.80;;
66139;SDS011;52945;51.908;8.364;2024-01-30T01:31:25;10.85;;;4.60;;
66139;SDS011;52945;51.908;8.364;2024-01-30T01:34:29;9.70;;;4.25;;
66139;SDS011;52945;51.908;8.364;2024-01-30T01:37:30;8.93;;;4.75;;
66139;SDS011;52945;51.908;8.364;2024-01-30T01:40:30;10.60;;;4.93;;
66139;SDS011;52945;51.908;8.364;2024-01-30T01:43:31;10.35;;;4.75;;
66139;SDS011;52945;51.908;8.364;2024-01-30T01:46:32;11.02;;;4.60;;
66139;SDS011;52945;51.908;8.364;2024-01-30T01:52:35;8.98;;;4.97;;
66139;SDS011;52945;51.908;8.364;2024-01-30T01:55:37;9.25;;;4.90;;
66139;SDS011;52945;51.908;8.364;2024-01-30T01:58:37;8.30;;;4.53;;
66139;SDS011;52945;51.908;8.364;2024-01-30T02:01:39;8.77;;;4.07;;
66139;SDS011;52945;51.908;8.364;2024-01-30T02:04:46;7.95;;;3.95;;
66139;SDS011;52945;51.908;8.364;2024-01-30T02:07:46;9.43;;;4.35;;
66139;SDS011;52945;51.908;8.364;2024-01-30T02:10:47;10.45;;;4.88;;
66139;SDS011;52945;51.908;8.364;2024-01-30T02:13:48;11.98;;;4.93;;
66139;SDS011;52945;51.908;8.364;2024-01-30T02:16:49;8.90;;;4.85;;
66139;SDS011;52945;51.908;8.364;2024-01-30T02:19:49;11.18;;;4.70;;
66139;SDS011;52945;51.908;8.364;2024-01-30T02:22:51;12.20;;;5.45;;
66139;SDS011;52945;51.908;8.364;2024-01-30T02:25:56;9.63;;;4.97;;
66139;SDS011;52945;51.908;8.364;2024-01-30T02:28:56;9.23;;;4.80;;
66139;SDS011;52945;51.908;8.364;2024-01-30T02:31:58;10.25;;;4.38;;
66139;SDS011;52945;51.908;8.364;2024-01-30T02:37:59;10.95;;;4.43;;
66139;SDS011;52945;51.908;8.364;2024-01-30T02:41:00;10.98;;;4.68;;
66139;SDS011;52945;51.908;8.364;2024-01-30T02:44:01;9.75;;;4.43;;
66139;SDS011;52945;51.908;8.364;2024-01-30T02:47:03;12.23;;;5.60;;
66139;SDS011;52945;51.908;8.364;2024-01-30T02:50:03;9.77;;;4.82;;
66139;SDS011;52945;51.908;8.364;2024-01-30T02:53:04;10.55;;;4.43;;
66139;SDS011;52945;51.908;8.364;2024-01-30T02:56:05;8.85;;;4.68;;
66139;SDS011;52945;51.908;8.364;2024-01-30T02:59:09;14.30;;;4.97;;
66139;SDS011;52945;51.908;8.364;2024-01-30T03:02:10;10.30;;;4.85;;
66139;SDS011;52945;51.908;8.364;2024-01-30T03:05:11;9.73;;;4.97;;
66139;SDS011;52945;51.908;8.364;2024-01-30T03:08:11;12.10;;;4.45;;
66139;SDS011;52945;51.908;8.364;2024-01-30T03:11:12;10.02;;;4.95;;
66139;SDS011;52945;51.908;8.364;2024-01-30T03:14:12;9.90;;;5.43;;
66139;SDS011;52945;51.908;8.364;2024-01-30T03:17:13;9.60;;;4.60;;
66139;SDS011;52945;51.908;8.364;2024-01-30T03:20:14;12.75;;;5.15;;
66139;SDS011;52945;51.908;8.364;2024-01-30T03:23:14;10.23;;;4.47;;
66139;SDS011;52945;51.908;8.364;2024-01-30T03:26:15;11.45;;;4.95;;
66139;SDS011;52945;51.908;8.364;2024-01-30T03:29:16;8.90;;;4.43;;
66139;SDS011;52945;51.908;8.364;2024-01-30T03:32:16;10.10;;;4.78;;
66139;SDS011;52945;51.908;8.364;2024-01-30T03:35:18;9.95;;;4.85;;
66139;SDS011;52945;51.908;8.364;2024-01-30T03:38:19;12.07;;;5.05;;
66139;SDS011;52945;51.908;8.364;2024-01-30T03:41:19;11.73;;;5.43;;
66139;SDS011;52945;51.908;8.364;2024-01-30T03:44:20;10.25;;;5.20;;
66139;SDS011;52945;51.908;8.364;2024-01-30T03:47:21;9.15;;;5.03;;
66139;SDS011;52945;51.908;8.364;2024-01-30T03:50:21;9.95;;;4.72;;
66139;SDS011;52945;51.908;8.364;2024-01-30T03:53:22;14.55;;;5.35;;
66139;SDS011;52945;51.908;8.364;2024-01-30T03:56:22;11.35;;;5.60;;
66139;SDS011;52945;51.908;8.364;2024-01-30T03:59:25;11.65;;;5.15;;
66139;SDS011;52945;51.908;8.364;2024-01-30T04:02:26;11.52;;;5.15;;
66139;SDS011;52945;51.908;8.364;2024-01-30T04:05:26;8.48;;;4.65;;
66139;SDS011;52945;51.908;8.364;2024-01-30T04:08:27;10.20;;;4.82;;
66139;SDS011;52945;51.908;8.364;2024-01-30T04:11:27;11.23;;;4.65;;
66139;SDS011;52945;51.908;8.364;2024-01-30T04:14:28;9.75;;;4.97;;
66139;SDS011;52945;51.908;8.364;2024-01-30T04:17:29;15.05;;;5.25;;
66139;SDS011;52945;51.908;8.364;2024-01-30T04:20:29;10.57;;;5.70;;
66139;SDS011;52945;51.908;8.364;2024-01-30T04:23:30;9.77;;;5.20;;
66139;SDS011;52945;51.908;8.364;2024-01-30T04:26:30;11.88;;;4.93;;
66139;SDS011;52945;51.908;8.364;2024-01-30T04:29:31;14.55;;;5.55;;
66139;SDS011;52945;51.908;8.364;2024-01-30T04:32:32;13.90;;;5.25;;
66139;SDS011;52945;51.908;8.364;2024-01-30T04:35:33;10.73;;;4.57;;
66139;SDS011;52945;51.908;8.364;2024-01-30T04:38:34;10.30;;;4.82;;
66139;SDS011;52945;51.908;8.364;2024-01-30T04:41:34;10.65;;;4.85;;
66139;SDS011;52945;51.908;8.364;2024-01-30T04:44:35;8.30;;;4.63;;
66139;SDS011;52945;51.908;8.364;2024-01-30T04:47:36;10.82;;;4.43;;
66139;SDS011;52945;51.908;8.364;2024-01-30T04:50:36;12.77;;;5.15;;
66139;SDS011;52945;51.908;8.364;2024-01-30T04:53:37;9.23;;;4.75;;
66139;SDS011;52945;51.908;8.364;2024-01-30T04:56:39;9.05;;;4.53;;
66139;SDS011;52945;51.908;8.364;2024-01-30T04:59:39;10.68;;;4.85;;
66139;SDS011;52945;51.908;8.364;2024-01-30T05:02:40;12.88;;;4.72;;
66139;SDS011;52945;51.908;8.364;2024-01-30T05:05:41;12.02;;;4.82;;
66139;SDS011;52945;51.908;8.364;2024-01-30T05:08:41;11.82;;;5.68;;
66139;SDS011;52945;51.908;8.364;2024-01-30T05:11:42;10.40;;;5.18;;
66139;SDS011;52945;51.908;8.364;2024-01-30T05:14:42;12.30;;;5.15;;
66139;SDS011;52945;51.908;8.364;2024-01-30T05:17:43;9.43;;;4.80;;
66139;SDS011;52945;51.908;8.364;2024-01-30T05:20:43;9.90;;;4.90;;
66139;SDS011;52945;51.908;8.364;2024-01-30T05:23:44;10.20;;;4.80;;
66139;SDS011;52945;51.908;8.364;2024-01-30T05:26:45;11.73;;;4.85;;
66139;SDS011;52945;51.908;8.364;2024-01-30T05:29:45;12.98;;;5.20;;
66139;SDS011;52945;51.908;8.364;2024-01-30T05:32:47;10.85;;;4.80;;
66139;SDS011;52945;51.908;8.364;2024-01-30T05:35:49;10.02;;;5.15;;
66139;SDS011;52945;51.908;8.364;2024-01-30T05:38:50;11.57;;;5.60;;
66139;SDS011;52945;51.908;8.364;2024-01-30T05:41:50;10.50;;;5.07;;
66139;SDS011;52945;51.908;8.364;2024-01-30T05:44:51;13.35;;;5.00;;
66139;SDS011;52945;51.908;8.364;2024-01-30T05:47:52;13.13;;;5.05;;
66139;SDS011;52945;51.908;8.364;2024-01-30T05:50:53;10.45;;;5.32;;
66139;SDS011;52945;51.908;8.364;2024-01-30T05:53:54;9.60;;;5.15;;
66139;SDS011;52945;51.908;8.364;2024-01-30T05:56:55;14.10;;;5.35;;
66139;SDS011;52945;51.908;8.364;2024-01-30T05:59:55;9.07;;;4.72;;
66139;SDS011;52945;51.908;8.364;2024-01-30T06:02:56;10.85;;;4.63;;
66139;SDS011;52945;51.908;8.364;2024-01-30T06:05:57;9.88;;;5.05;;
66139;SDS011;52945;51.908;8.364;2024-01-30T06:08:57;12.55;;;5.07;;
66139;SDS011;52945;51.908;8.364;2024-01-30T06:11:58;7.60;;;4.65;;
66139;SDS011;52945;51.908;8.364;2024-01-30T06:14:58;11.07;;;4.85;;
66139;SDS011;52945;51.908;8.364;2024-01-30T06:17:59;9.85;;;4.53;;
66139;SDS011;52945;51.908;8.364;2024-01-30T06:21:00;10.55;;;4.85;;
66139;SDS011;52945;51.908;8.364;2024-01-30T06:24:00;11.50;;;5.18;;
66139;SDS011;52945;51.908;8.364;2024-01-30T06:27:01;12.15;;;4.95;;
66139;SDS011;52945;51.908;8.364;2024-01-30T06:30:02;9.63;;;5.03;;
66139;SDS011;52945;51.908;8.364;2024-01-30T06:33:03;10.50;;;4.90;;
66139;SDS011;52945;51.908;8.364;2024-01-30T06:36:04;10.35;;;5.18;;
66139;SDS011;52945;51.908;8.364;2024-01-30T06:39:05;9.88;;;4.68;;
66139;SDS011;52945;51.908;8.364;2024-01-30T06:42:05;13.43;;;4.95;;
66139;SDS011;52945;51.908;8.364;2024-01-30T06:45:06;12.65;;;5.93;;
66139;SDS011;52945;51.908;8.364;2024-01-30T06:48:08;12.05;;;4.47;;
66139;SDS011;52945;51.908;8.364;2024-01-30T06:51:08;8.77;;;4.63;;
66139;SDS011;52945;51.908;8.364;2024-01-30T06:54:09;11.73;;;4.70;;
66139;SDS011;52945;51.908;8.364;2024-01-30T06:57:09;8.93;;;4.50;;
66139;SDS011;52945;51.908;8.364;2024-01-30T07:00:12;9.30;;;4.60;;
66139;SDS011;52945;51.908;8.364;2024-01-30T07:06:14;9.88;;;4.28;;
66139;SDS011;52945;51.908;8.364;2024-01-30T07:09:14;10.20;;;4.13;;
66139;SDS011;52945;51.908;8.364;2024-01-30T07:12:15;8.50;;;4.72;;
66139;SDS011;52945;51.908;8.364;2024-01-30T07:15:16;10.35;;;4.72;;
66139;SDS011;52945;51.908;8.364;2024-01-30T07:18:19;14.57;;;4.47;;
66139;SDS011;52945;51.908;8.364;2024-01-30T07:21:20;12.77;;;4.20;;
66139;SDS011;52945;51.908;8.364;2024-01-30T07:24:25;10.10;;;4.80;;
66139;SDS011;52945;51.908;8.364;2024-01-30T07:27:25;10.60;;;4.60;;
66139;SDS011;52945;51.908;8.364;2024-01-30T07:30:26;10.30;;;4.47;;
66139;SDS011;52945;51.908;8.364;2024-01-30T07:33:27;10.63;;;4.75;;
66139;SDS011;52945;51.908;8.364;2024-01-30T07:36:27;9.27;;;4.70;;
66139;SDS011;52945;51.908;8.364;2024-01-30T07:39:28;9.38;;;4.45;;
66139;SDS011;52945;51.908;8.364;2024-01-30T07:42:28;7.97;;;4.38;;
66139;SDS011;52945;51.908;8.364;2024-01-30T07:45:29;9.75;;;4.53;;
66139;SDS011;52945;51.908;8.364;2024-01-30T07:48:33;7.90;;;4.20;;
66139;SDS011;52945;51.908;8.364;2024-01-30T07:51:34;8.63;;;4.35;;
66139;SDS011;52945;51.908;8.364;2024-01-30T07:55:08;11.10;;;5.43;;
66139;SDS011;52945;51.908;8.364;2024-01-30T08:02:03;8.00;;;4.47;;
66139;SDS011;52945;51.908;8.364;2024-01-30T08:05:04;9.30;;;4.75;;
66139;SDS011;52945;51.908;8.364;2024-01-30T08:08:05;10.05;;;4.43;;
66139;SDS011;52945;51.908;8.364;2024-01-30T08:11:05;10.63;;;4.85;;
66139;SDS011;52945;51.908;8.364;2024-01-30T08:17:08;10.75;;;4.38;;
66139;SDS011;52945;51.908;8.364;2024-01-30T08:20:09;11.40;;;4.97;;
66139;SDS011;52945;51.908;8.364;2024-01-30T08:23:11;10.60;;;5.18;;
66139;SDS011;52945;51.908;8.364;2024-01-30T08:26:12;12.40;;;4.95;;
66139;SDS011;52945;51.908;8.364;2024-01-30T08:29:12;14.40;;;5.07;;
66139;SDS011;52945;51.908;8.364;2024-01-30T08:32:13;8.50;;;4.53;;
66139;SDS011;52945;51.908;8.364;2024-01-30T08:35:14;9.45;;;4.95;;
66139;SDS011;52945;51.908;8.364;2024-01-30T08:38:16;10.93;;;5.07;;
66139;SDS011;52945;51.908;8.364;2024-01-30T08:41:16;9.38;;;5.00;;
66139;SDS011;52945;51.908;8.364;2024-01-30T08:44:17;15.10;;;5.18;;
66139;SDS011;52945;51.908;8.364;2024-01-30T08:47:17;11.82;;;5.32;;
66139;SDS011;52945;51.908;8.364;2024-01-30T08:50:18;10.13;;;5.00;;
66139;SDS011;52945;51.908;8.364;2024-01-30T08:53:19;11.60;;;5.22;;
66139;SDS011;52945;51.908;8.364;2024-01-30T08:56:19;9.32;;;4.82;;
66139;SDS011;52945;51.908;8.364;2024-01-30T08:59:20;13.98;;;5.32;;
66139;SDS011;52945;51.908;8.364;2024-01-30T09:02:21;12.25;;;4.97;;
66139;SDS011;52945;51.908;8.364;2024-01-30T09:05:21;11.50;;;4.70;;
66139;SDS011;52945;51.908;8.364;2024-01-30T09:08:22;9.27;;;4.70;;
66139;SDS011;52945;51.908;8.364;2024-01-30T09:11:23;11.77;;;5.00;;
66139;SDS011;52945;51.908;8.364;2024-01-30T09:14:24;12.40;;;5.18;;
66139;SDS011;52945;51.908;8.364;2024-01-30T09:17:24;9.73;;;4.72;;
66139;SDS011;52945;51.908;8.364;2024-01-30T09:20:25;12.15;;;5.10;;
66139;SDS011;52945;51.908;8.364;2024-01-30T09:23:27;9.10;;;4.93;;
66139;SDS011;52945;51.908;8.364;2024-01-30T09:26:28;10.38;;;4.40;;
66139;SDS011;52945;51.908;8.364;2024-01-30T09:29:28;9.88;;;4.85;;
66139;SDS011;52945;51.908;8.364;2024-01-30T09:32:29;11.02;;;5.15;;
66139;SDS011;52945;51.908;8.364;2024-01-30T09:35:29;11.93;;;5.65;;
66139;SDS011;52945;51.908;8.364;2024-01-30T09:38:30;11.30;;;5.13;;
66139;SDS011;52945;51.908;8.364;2024-01-30T09:41:32;9.15;;;4.38;;
66139;SDS011;52945;51.908;8.364;2024-01-30T09:44:36;9.00;;;4.30;;
66139;SDS011;52945;51.908;8.364;2024-01-30T09:47:39;9.57;;;4.82;;
66139;SDS011;52945;51.908;8.364;2024-01-30T09:50:44;9.75;;;5.05;;
66139;SDS011;52945;51.908;8.364;2024-01-30T09:53:45;9.32;;;4.60;;
66139;SDS011;52945;51.908;8.364;2024-01-30T09:56:47;7.95;;;4.70;;
66139;SDS011;52945;51.908;8.364;2024-01-30T09:59:48;9.63;;;4.38;;
66139;SDS011;52945;51.908;8.364;2024-01-30T10:02:48;11.52;;;4.50;;
66139;SDS011;52945;51.908;8.364;2024-01-30T10:05:50;10.00;;;4.28;;
66139;SDS011;52945;51.908;8.364;2024-01-30T10:08:54;9.30;;;4.05;;
66139;SDS011;52945;51.908;8.364;2024-01-30T10:11:55;10.52;;;4.60;;
66139;SDS011;52945;51.908;8.364;2024-01-30T10:14:56;9.27;;;4.30;;
66139;SDS011;52945;51.908;8.364;2024-01-30T10:17:57;8.55;;;4.07;;
66139;SDS011;52945;51.908;8.364;2024-01-30T10:20:58;9.98;;;4.10;;
66139;SDS011;52945;51.908;8.364;2024-01-30T10:23:59;9.35;;;4.10;;
66139;SDS011;52945;51.908;8.364;2024-01-30T10:27:00;8.82;;;4.20;;
66139;SDS011;52945;51.908;8.364;2024-01-30T10:30:00;8.95;;;3.85;;
66139;SDS011;52945;51.908;8.364;2024-01-30T10:33:01;10.77;;;4.25;;
66139;SDS011;52945;51.908;8.364;2024-01-30T10:36:02;10.00;;;4.13;;
66139;SDS011;52945;51.908;8.364;2024-01-30T10:39:04;12.00;;;4.43;;
66139;SDS011;52945;51.908;8.364;2024-01-30T10:42:09;9.73;;;4.35;;
66139;SDS011;52945;51.908;8.364;2024-01-30T10:45:13;8.50;;;4.35;;
66139;SDS011;52945;51.908;8.364;2024-01-30T10:48:16;10.75;;;4.20;;
66139;SDS011;52945;51.908;8.364;2024-01-30T10:51:18;8.25;;;4.05;;
66139;SDS011;52945;51.908;8.364;2024-01-30T10:54:22;12.50;;;4.25;;
66139;SDS011;52945;51.908;8.364;2024-01-30T10:57:25;7.80;;;3.83;;
66139;SDS011;52945;51.908;8.364;2024-01-30T11:00:27;9.63;;;4.70;;
66139;SDS011;52945;51.908;8.364;2024-01-30T11:06:29;9.23;;;4.07;;
66139;SDS011;52945;51.908;8.364;2024-01-30T11:09:30;9.93;;;4.25;;
66139;SDS011;52945;51.908;8.364;2024-01-30T11:12:40;12.15;;;4.97;;
66139;SDS011;52945;51.908;8.364;2024-01-30T11:15:42;11.55;;;3.90;;
66139;SDS011;52945;51.908;8.364;2024-01-30T11:18:43;8.38;;;4.10;;
66139;SDS011;52945;51.908;8.364;2024-01-30T11:21:54;7.30;;;3.65;;
66139;SDS011;52945;51.908;8.364;2024-01-30T11:24:56;8.55;;;3.88;;
66139;SDS011;52945;51.908;8.364;2024-01-30T11:27:58;9.90;;;3.60;;
66139;SDS011;52945;51.908;8.364;2024-01-30T11:31:05;8.73;;;3.78;;
66139;SDS011;52945;51.908;8.364;2024-01-30T11:34:11;5.93;;;3.30;;
66139;SDS011;52945;51.908;8.364;2024-01-30T11:37:14;8.15;;;4.03;;
66139;SDS011;52945;51.908;8.364;2024-01-30T11:40:16;7.20;;;3.85;;
66139;SDS011;52945;51.908;8.364;2024-01-30T11:43:17;7.85;;;3.95;;
66139;SDS011;52945;51.908;8.364;2024-01-30T11:46:18;10.50;;;4.07;;
66139;SDS011;52945;51.908;8.364;2024-01-30T11:49:19;8.35;;;3.65;;
66139;SDS011;52945;51.908;8.364;2024-01-30T11:52:20;6.85;;;3.55;;
66139;SDS011;52945;51.908;8.364;2024-01-30T11:55:21;7.38;;;3.75;;
66139;SDS011;52945;51.908;8.364;2024-01-30T11:58:24;9.63;;;3.85;;
66139;SDS011;52945;51.908;8.364;2024-01-30T12:01:26;6.05;;;3.45;;
66139;SDS011;52945;51.908;8.364;2024-01-30T12:04:28;6.93;;;3.85;;
66139;SDS011;52945;51.908;8.364;2024-01-30T12:07:29;7.15;;;3.55;;
66139;SDS011;52945;51.908;8.364;2024-01-30T12:10:30;9.63;;;3.88;;
66139;SDS011;52945;51.908;8.364;2024-01-30T12:13:31;8.65;;;3.80;;
66139;SDS011;52945;51.908;8.364;2024-01-30T12:16:32;7.78;;;3.75;;
66139;SDS011;52945;51.908;8.364;2024-01-30T12:19:32;7.75;;;3.40;;
66139;SDS011;52945;51.908;8.364;2024-01-30T12:22:36;9.60;;;4.05;;
66139;SDS011;52945;51.908;8.364;2024-01-30T12:25:38;7.47;;;3.92;;
66139;SDS011;52945;51.908;8.364;2024-01-30T12:28:47;7.72;;;3.65;;
66139;SDS011;52945;51.908;8.364;2024-01-30T12:31:49;9.75;;;3.60;;
66139;SDS011;52945;51.908;8.364;2024-01-30T12:34:56;7.50;;;3.45;;
66139;SDS011;52945;51.908;8.364;2024-01-30T12:37:57;9.10;;;3.78;;
66139;SDS011;52945;51.908;8.364;2024-01-30T12:40:58;7.07;;;4.43;;
66139;SDS011;52945;51.908;8.364;2024-01-30T12:43:58;7.00;;;3.45;;
66139;SDS011;52945;51.908;8.364;2024-01-30T12:47:02;8.48;;;3.45;;
66139;SDS011;52945;51.908;8.364;2024-01-30T12:50:03;6.80;;;3.67;;
66139;SDS011;52945;51.908;8.364;2024-01-30T12:53:04;10.88;;;3.65;;
66139;SDS011;52945;51.908;8.364;2024-01-30T12:56:06;8.20;;;3.70;;
66139;SDS011;52945;51.908;8.364;2024-01-30T12:59:06;8.25;;;3.50;;
66139;SDS011;52945;51.908;8.364;2024-01-30T13:02:07;7.53;;;3.28;;
66139;SDS011;52945;51.908;8.364;2024-01-30T13:05:08;9.25;;;3.38;;
66139;SDS011;52945;51.908;8.364;2024-01-30T13:08:08;6.90;;;3.38;;
66139;SDS011;52945;51.908;8.364;2024-01-30T13:11:09;9.18;;;3.40;;
66139;SDS011;52945;51.908;8.364;2024-01-30T13:14:10;9.93;;;3.30;;
66139;SDS011;52945;51.908;8.364;2024-01-30T13:17:10;9.60;;;3.65;;
66139;SDS011;52945;51.908;8.364;2024-01-30T13:20:11;5.78;;;3.35;;
66139;SDS011;52945;51.908;8.364;2024-01-30T13:23:12;7.57;;;3.20;;
66139;SDS011;52945;51.908;8.364;2024-01-30T13:26:12;9.65;;;3.42;;
66139;SDS011;52945;51.908;8.364;2024-01-30T13:29:13;7.55;;;4.50;;
66139;SDS011;52945;51.908;8.364;2024-01-30T13:32:13;7.13;;;3.40;;
66139;SDS011;52945;51.908;8.364;2024-01-30T13:35:16;10.02;;;4.28;;
66139;SDS011;52945;51.908;8.364;2024-01-30T13:38:16;10.05;;;3.78;;
66139;SDS011;52945;51.908;8.364;2024-01-30T13:41:19;11.35;;;4.15;;
66139;SDS011;52945;51.908;8.364;2024-01-30T13:44:30;9.52;;;3.85;;
66139;SDS011;52945;51.908;8.364;2024-01-30T13:47:30;7.50;;;3.92;;
66139;SDS011;52945;51.908;8.364;2024-01-30T13:50:31;11.05;;;4.20;;
66139;SDS011;52945;51.908;8.364;2024-01-30T13:53:33;6.68;;;3.65;;
66139;SDS011;52945;51.908;8.364;2024-01-30T13:56:33;12.52;;;4.45;;
66139;SDS011;52945;51.908;8.364;2024-01-30T13:59:34;9.38;;;4.40;;
66139;SDS011;52945;51.908;8.364;2024-01-30T14:02:34;11.50;;;4.10;;
66139;SDS011;52945;51.908;8.364;2024-01-30T14:05:35;7.68;;;4.30;;
66139;SDS011;52945;51.908;8.364;2024-01-30T14:08:36;11.77;;;4.15;;
66139;SDS011;52945;51.908;8.364;2024-01-30T14:11:36;8.90;;;3.85;;
66139;SDS011;52945;51.908;8.364;2024-01-30T14:14:37;8.63;;;4.25;;
66139;SDS011;52945;51.908;8.364;2024-01-30T14:17:37;9.18;;;4.07;;
66139;SDS011;52945;51.908;8.364;2024-01-30T14:20:38;10.27;;;3.60;;
66139;SDS011;52945;51.908;8.364;2024-01-30T14:23:39;10.27;;;3.80;;
66139;SDS011;52945;51.908;8.364;2024-01-30T14:26:39;8.20;;;3.58;;
66139;SDS011;52945;51.908;8.364;2024-01-30T14:29:40;9.05;;;4.32;;
66139;SDS011;52945;51.908;8.364;2024-01-30T14:32:42;9.15;;;4.07;;
66139;SDS011;52945;51.908;8.364;2024-01-30T14:35:44;7.22;;;3.13;;
66139;SDS011;52945;51.908;8.364;2024-01-30T14:38:45;9.68;;;4.38;;
66139;SDS011;52945;51.908;8.364;2024-01-30T14:41:45;8.25;;;4.20;;
66139;SDS011;52945;51.908;8.364;2024-01-30T14:44:46;7.97;;;3.90;;
66139;SDS011;52945;51.908;8.364;2024-01-30T14:47:46;9.07;;;4.00;;
66139;SDS011;52945;51.908;8.364;2024-01-30T14:50:47;7.13;;;3.80;;
66139;SDS011;52945;51.908;8.364;2024-01-30T14:53:48;9.48;;;3.55;;
66139;SDS011;52945;51.908;8.364;2024-01-30T14:56:48;7.55;;;3.42;;
66139;SDS011;52945;51.908;8.364;2024-01-30T14:59:49;11.02;;;4.13;;
66139;SDS011;52945;51.908;8.364;2024-01-30T15:02:50;6.28;;;3.55;;
66139;SDS011;52945;51.908;8.364;2024-01-30T15:05:50;10.75;;;3.60;;
66139;SDS011;52945;51.908;8.364;2024-01-30T15:08:51;12.23;;;4.00;;
66139;SDS011;52945;51.908;8.364;2024-01-30T15:11:52;9.55;;;3.83;;
66139;SDS011;52945;51.908;8.364;2024-01-30T15:14:53;11.82;;;3.85;;
66139;SDS011;52945;51.908;8.364;2024-01-30T15:17:54;5.63;;;3.38;;
66139;SDS011;52945;51.908;8.364;2024-01-30T15:20:54;7.93;;;3.83;;
66139;SDS011;52945;51.908;8.364;2024-01-30T15:23:55;11.52;;;4.35;;
66139;SDS011;52945;51.908;8.364;2024-01-30T15:26:55;10.05;;;4.38;;
66139;SDS011;52945;51.908;8.364;2024-01-30T15:29:56;8.15;;;4.45;;
66139;SDS011;52945;51.908;8.364;2024-01-30T15:32:57;9.65;;;4.50;;
66139;SDS011;52945;51.908;8.364;2024-01-30T15:36:00;10.38;;;4.72;;
66139;SDS011;52945;51.908;8.364;2024-01-30T15:39:01;13.40;;;4.28;;
66139;SDS011;52945;51.908;8.364;2024-01-30T15:42:02;11.18;;;4.07;;
66139;SDS011;52945;51.908;8.364;2024-01-30T15:45:03;8.65;;;4.72;;
66139;SDS011;52945;51.908;8.364;2024-01-30T15:48:04;10.57;;;5.35;;
66139;SDS011;52945;51.908;8.364;2024-01-30T15:51:07;11.27;;;4.45;;
66139;SDS011;52945;51.908;8.364;2024-01-30T15:54:07;9.95;;;3.92;;
66139;SDS011;52945;51.908;8.364;2024-01-30T15:57:08;10.13;;;4.10;;
66139;SDS011;52945;51.908;8.364;2024-01-30T16:00:10;8.98;;;4.30;;
66139;SDS011;52945;51.908;8.364;2024-01-30T16:03:12;9.27;;;4.72;;
66139;SDS011;52945;51.908;8.364;2024-01-30T16:06:16;8.13;;;4.00;;
66139;SDS011;52945;51.908;8.364;2024-01-30T16:09:16;10.65;;;4.18;;
66139;SDS011;52945;51.908;8.364;2024-01-30T16:12:17;11.90;;;3.78;;
66139;SDS011;52945;51.908;8.364;2024-01-30T16:15:18;10.10;;;3.90;;
66139;SDS011;52945;51.908;8.364;2024-01-30T16:18:18;8.70;;;3.63;;
66139;SDS011;52945;51.908;8.364;2024-01-30T16:21:19;6.35;;;3.60;;
66139;SDS011;52945;51.908;8.364;2024-01-30T16:24:20;11.27;;;4.28;;
66139;SDS011;52945;51.908;8.364;2024-01-30T16:27:23;7.82;;;3.90;;
66139;SDS011;52945;51.908;8.364;2024-01-30T16:30:23;8.70;;;3.75;;
66139;SDS011;52945;51.908;8.364;2024-01-30T16:33:24;8.30;;;3.33;;
66139;SDS011;52945;51.908;8.364;2024-01-30T16:36:24;6.97;;;3.70;;
66139;SDS011;52945;51.908;8.364;2024-01-30T16:39:25;9.55;;;3.88;;
66139;SDS011;52945;51.908;8.364;2024-01-30T16:42:25;7.25;;;4.05;;
66139;SDS011;52945;51.908;8.364;2024-01-30T16:45:26;8.90;;;4.72;;
66139;SDS011;52945;51.908;8.364;2024-01-30T16:48:27;11.00;;;4.18;;
66139;SDS011;52945;51.908;8.364;2024-01-30T16:51:27;9.75;;;4.40;;
66139;SDS011;52945;51.908;8.364;2024-01-30T16:54:28;10.30;;;4.20;;
66139;SDS011;52945;51.908;8.364;2024-01-30T16:57:28;10.05;;;3.90;;
66139;SDS011;52945;51.908;8.364;2024-01-30T17:00:29;9.43;;;4.40;;
66139;SDS011;52945;51.908;8.364;2024-01-30T17:03:30;8.65;;;3.97;;
66139;SDS011;52945;51.908;8.364;2024-01-30T17:06:31;7.80;;;3.75;;
66139;SDS011;52945;51.908;8.364;2024-01-30T17:09:31;7.60;;;4.32;;
66139;SDS011;52945;51.908;8.364;2024-01-30T17:12:32;10.02;;;4.30;;
66139;SDS011;52945;51.908;8.364;2024-01-30T17:15:33;9.70;;;4.07;;
66139;SDS011;52945;51.908;8.364;2024-01-30T17:18:34;8.93;;;4.50;;
66139;SDS011;52945;51.908;8.364;2024-01-30T17:21:35;9.00;;;3.55;;
66139;SDS011;52945;51.908;8.364;2024-01-30T17:24:37;10.88;;;3.95;;
66139;SDS011;52945;51.908;8.364;2024-01-30T17:27:37;7.85;;;4.00;;
66139;SDS011;52945;51.908;8.364;2024-01-30T17:30:38;6.32;;;3.10;;
66139;SDS011;52945;51.908;8.364;2024-01-30T17:33:39;6.95;;;3.13;;
66139;SDS011;52945;51.908;8.364;2024-01-30T17:36:41;6.10;;;2.88;;
66139;SDS011;52945;51.908;8.364;2024-01-30T17:39:42;3.53;;;2.00;;
66139;SDS011;52945;51.908;8.364;2024-01-30T17:42:42;3.97;;;1.75;;
66139;SDS011;52945;51.908;8.364;2024-01-30T17:45:43;2.70;;;1.52;;
66139;SDS011;52945;51.908;8.364;2024-01-30T17:48:44;3.10;;;1.45;;
66139;SDS011;52945;51.908;8.364;2024-01-30T17:51:46;1.88;;;0.85;;
66139;SDS011;52945;51.908;8.364;2024-01-30T17:54:47;3.53;;;1.05;;
66139;SDS011;52945;51.908;8.364;2024-01-30T17:57:48;3.63;;;1.10;;
66139;SDS011;52945;51.908;8.364;2024-01-30T18:00:49;0.95;;;0.80;;
66139;SDS011;52945;51.908;8.364;2024-01-30T18:03:49;1.98;;;1.05;;
66139;SDS011;52945;51.908;8.364;2024-01-30T18:06:52;3.15;;;1.10;;
66139;SDS011;52945;51.908;8.364;2024-01-30T18:09:54;1.23;;;0.98;;
66139;SDS011;52945;51.908;8.364;2024-01-30T18:12:55;2.60;;;0.93;;
66139;SDS011;52945;51.908;8.364;2024-01-30T18:15:59;2.10;;;0.80;;
66139;SDS011;52945;51.908;8.364;2024-01-30T18:18:59;3.38;;;0.90;;
66139;SDS011;52945;51.908;8.364;2024-01-30T18:22:00;2.92;;;0.93;;